createdAt,value
2018-08-04T00:00:16.043Z,47.00
2018-08-04T00:02:44.940Z,47.00
2018-08-04T00:05:13.216Z,47.10
2018-08-04T00:07:41.650Z,47.30
2018-08-04T00:10:16.522Z,47.30
2018-08-04T00:12:45.499Z,47.20
2018-08-04T00:15:14.304Z,47.40
2018-08-04T00:17:43.018Z,47.50
2018-08-04T00:20:11.264Z,47.60
2018-08-04T00:22:39.455Z,47.50
2018-08-04T00:25:08.638Z,47.60
2018-08-04T00:27:37.795Z,47.70
2018-08-04T00:30:09.888Z,47.80
2018-08-04T00:32:38.499Z,47.90
2018-08-04T00:35:07.227Z,47.90
2018-08-04T00:37:36.372Z,48.00
2018-08-04T00:40:05.979Z,48.10
2018-08-04T00:42:34.895Z,48.10
2018-08-04T00:45:04.928Z,48.10
2018-08-04T00:47:34.691Z,48.20
2018-08-04T00:50:03.936Z,48.30
2018-08-04T00:52:36.468Z,48.40
2018-08-04T00:55:06.715Z,49.00
2018-08-04T00:57:35.008Z,48.30
2018-08-04T01:00:04.943Z,48.30
2018-08-04T01:02:34.407Z,48.20
2018-08-04T01:05:04.347Z,48.70
2018-08-04T01:07:33.874Z,48.10
2018-08-04T01:10:04.153Z,48.10
2018-08-04T01:12:32.464Z,48.10
2018-08-04T01:15:02.024Z,48.00
2018-08-04T01:17:32.491Z,48.00
2018-08-04T01:20:08.559Z,48.10
2018-08-04T01:22:38.975Z,48.30
2018-08-04T01:25:07.795Z,48.40
2018-08-04T01:30:06.886Z,48.50
2018-08-04T01:32:35.832Z,48.50
2018-08-04T01:35:04.108Z,48.50
2018-08-04T01:37:34.731Z,48.50
2018-08-04T01:40:06.982Z,48.50
2018-08-04T01:42:35.693Z,48.30
2018-08-04T01:45:06.658Z,48.30
2018-08-04T01:47:34.857Z,48.50
2018-08-04T01:50:03.949Z,48.70
2018-08-04T01:52:32.881Z,48.80
2018-08-04T01:55:02.011Z,48.90
2018-08-04T01:57:30.272Z,49.00
2018-08-04T02:00:00.880Z,49.20
2018-08-04T02:02:29.702Z,49.30
2018-08-04T02:04:58.444Z,49.40
2018-08-04T02:07:28.084Z,49.40
2018-08-04T02:09:57.613Z,49.50
2018-08-04T02:12:27.398Z,49.50
2018-08-04T02:14:58.671Z,49.40
2018-08-04T02:17:29.043Z,49.50
2018-08-04T02:19:59.099Z,49.50
2018-08-04T02:22:27.532Z,49.50
2018-08-04T02:24:56.068Z,49.50
2018-08-04T02:27:24.281Z,49.50
2018-08-04T02:29:54.211Z,49.60
2018-08-04T02:32:22.460Z,49.60
2018-08-04T02:34:51.924Z,49.60
2018-08-04T02:37:20.619Z,49.70
2018-08-04T02:39:50.043Z,49.80
2018-08-04T02:42:20.164Z,49.90
2018-08-04T02:44:49.453Z,50.10
2018-08-04T02:47:19.169Z,50.20
2018-08-04T02:49:53.385Z,50.20
2018-08-04T02:52:24.356Z,50.40
2018-08-04T02:54:54.242Z,50.40
2018-08-04T02:57:23.292Z,50.40
2018-08-04T02:59:52.895Z,50.50
2018-08-04T03:02:21.783Z,50.50
2018-08-04T03:04:50.884Z,50.50
2018-08-04T03:07:21.231Z,50.60
2018-08-04T03:09:53.985Z,50.70
2018-08-04T03:12:23.444Z,50.70
2018-08-04T03:14:51.679Z,50.90
2018-08-04T03:17:20.162Z,50.80
2018-08-04T03:19:50.364Z,51.00
2018-08-04T03:24:48.123Z,51.30
2018-08-04T03:27:16.809Z,51.40
2018-08-04T03:29:45.307Z,51.50
2018-08-04T03:32:14.844Z,51.50
2018-08-04T03:34:47.233Z,51.60
2018-08-04T03:37:16.111Z,52.20
2018-08-04T03:39:45.655Z,51.80
2018-08-04T03:42:13.918Z,51.90
2018-08-04T03:47:12.257Z,52.20
2018-08-04T03:49:42.584Z,52.30
2018-08-04T03:52:12.074Z,52.30
2018-08-04T03:54:42.094Z,52.40
2018-08-04T03:57:10.345Z,52.50
2018-08-04T03:59:39.125Z,52.50
2018-08-04T04:02:07.312Z,52.60
2018-08-04T04:04:35.732Z,52.80
2018-08-04T04:07:06.115Z,52.80
2018-08-04T04:12:07.627Z,52.90
2018-08-04T04:14:37.367Z,52.90
2018-08-04T04:17:05.908Z,53.00
2018-08-04T04:19:34.151Z,53.00
2018-08-04T04:22:03.463Z,53.10
2018-08-04T04:24:31.928Z,53.20
2018-08-04T04:27:00.167Z,53.20
2018-08-04T04:29:28.403Z,53.30
2018-08-04T04:31:57.103Z,53.40
2018-08-04T04:34:25.737Z,53.50
2018-08-04T04:36:54.018Z,53.60
2018-08-04T04:39:22.275Z,53.60
2018-08-04T04:44:18.948Z,53.80
2018-08-04T04:46:48.157Z,53.80
2018-08-04T04:51:45.703Z,54.10
2018-08-04T04:54:14.096Z,54.20
2018-08-04T04:56:42.356Z,54.10
2018-08-04T04:59:11.235Z,54.00
2018-08-04T05:01:40.748Z,54.10
2018-08-04T05:04:11.406Z,54.00
2018-08-04T05:06:39.652Z,53.90
2018-08-04T05:09:10.702Z,53.90
2018-08-04T05:11:40.694Z,53.90
2018-08-04T05:14:10.008Z,53.90
2018-08-04T05:16:39.271Z,53.90
2018-08-04T05:19:09.019Z,54.10
2018-08-04T05:21:38.281Z,54.10
2018-08-04T05:24:06.423Z,54.30
2018-08-04T05:26:37.636Z,54.30
2018-08-04T05:29:06.168Z,54.50
2018-08-04T05:31:34.410Z,54.50
2018-08-04T05:34:04.012Z,54.50
2018-08-04T05:36:33.543Z,54.70
2018-08-04T05:44:00.937Z,54.90
2018-08-04T05:49:00.488Z,55.10
2018-08-04T05:51:29.660Z,55.20
2018-08-04T05:56:30.071Z,55.40
2018-08-04T05:59:00.824Z,55.40
2018-08-04T06:01:30.007Z,55.40
2018-08-04T06:03:59.236Z,55.40
2018-08-04T06:06:27.890Z,55.40
2018-08-04T06:08:56.835Z,55.40
2018-08-04T06:11:29.566Z,55.40
2018-08-04T06:14:02.299Z,55.40
2018-08-04T06:16:31.098Z,55.40
2018-08-04T06:18:59.366Z,55.30
2018-08-04T06:21:28.242Z,55.20
2018-08-04T06:23:56.903Z,55.30
2018-08-04T06:26:26.004Z,55.30
2018-08-04T06:28:54.973Z,55.30
2018-08-04T06:31:23.917Z,55.30
2018-08-04T06:33:53.480Z,55.10
2018-08-04T06:36:21.946Z,55.00
2018-08-04T06:38:51.388Z,55.00
2018-08-04T06:41:24.469Z,55.00
2018-08-04T06:43:53.507Z,54.80
2018-08-04T06:46:23.049Z,54.70
2018-08-04T06:48:51.243Z,54.50
2018-08-04T06:51:21.846Z,54.40
2018-08-04T06:53:51.453Z,54.10
2018-08-04T06:56:19.688Z,53.90
2018-08-04T06:58:48.897Z,53.80
2018-08-04T07:01:18.464Z,53.60
2018-08-04T07:03:48.368Z,53.30
2018-08-04T07:06:17.087Z,53.10
2018-08-04T07:08:47.795Z,52.70
2018-08-04T07:11:17.932Z,52.60
2018-08-04T07:13:47.797Z,52.60
2018-08-04T07:16:16.956Z,52.50
2018-08-04T07:18:46.651Z,52.10
2018-08-04T07:21:15.593Z,51.80
2018-08-04T07:23:46.315Z,51.80
2018-08-04T07:26:16.674Z,51.60
2018-08-04T07:31:15.801Z,51.00
2018-08-04T07:33:44.234Z,50.90
2018-08-04T07:36:14.036Z,50.60
2018-08-04T07:38:42.678Z,50.10
2018-08-04T07:41:12.463Z,50.00
2018-08-04T07:43:40.682Z,49.70
2018-08-04T07:46:10.104Z,49.30
2018-08-04T07:48:39.062Z,48.90
2018-08-04T07:51:08.216Z,48.80
2018-08-04T07:53:39.015Z,48.50
2018-08-04T07:56:07.591Z,48.30
2018-08-04T07:58:36.748Z,48.10
2018-08-04T08:03:34.717Z,48.00
2018-08-04T08:08:31.436Z,47.60
2018-08-04T08:11:02.053Z,47.60
2018-08-04T08:13:31.438Z,47.40
2018-08-04T08:16:00.903Z,47.20
2018-08-04T08:18:30.850Z,47.10
2018-08-04T08:21:00.119Z,47.00
2018-08-04T08:23:30.482Z,46.70
2018-08-04T08:26:09.164Z,46.60
2018-08-04T08:28:37.838Z,46.60
2018-08-04T08:31:06.658Z,46.30
2018-08-04T08:33:35.003Z,46.10
2018-08-04T08:36:05.765Z,45.80
2018-08-04T08:38:35.139Z,45.50
2018-08-04T08:41:04.224Z,45.40
2018-08-04T08:43:34.388Z,45.40
2018-08-04T08:46:03.231Z,45.30
2018-08-04T08:48:32.021Z,45.10
2018-08-04T08:51:02.341Z,45.00
2018-08-04T08:53:31.392Z,45.10
2018-08-04T08:56:01.924Z,45.10
2018-08-04T08:58:31.611Z,44.70
2018-08-04T09:01:00.124Z,44.40
2018-08-04T09:03:28.387Z,44.30
2018-08-04T09:05:58.852Z,44.30
2018-08-04T09:08:27.180Z,44.10
2018-08-04T09:11:01.976Z,44.10
2018-08-04T09:13:33.035Z,44.10
2018-08-04T09:16:02.521Z,43.80
2018-08-04T09:18:33.345Z,43.70
2018-08-04T09:21:04.511Z,43.40
2018-08-04T09:23:34.062Z,43.30
2018-08-04T09:26:03.893Z,43.60
2018-08-04T09:28:34.296Z,43.60
2018-08-04T09:31:03.931Z,43.40
2018-08-04T09:33:34.452Z,43.70
2018-08-04T09:36:06.969Z,43.00
2018-08-04T09:38:36.013Z,42.90
2018-08-04T09:41:06.233Z,43.10
2018-08-04T09:43:35.990Z,43.10
2018-08-04T09:46:07.618Z,43.10
2018-08-04T09:48:36.651Z,43.00
2018-08-04T09:51:06.495Z,43.20
2018-08-04T09:53:37.180Z,42.90
2018-08-04T09:56:08.204Z,42.90
2018-08-04T09:58:37.201Z,43.00
2018-08-04T10:01:12.221Z,43.00
2018-08-04T10:03:41.888Z,43.10
2018-08-04T10:06:12.576Z,42.70
2018-08-04T10:08:41.994Z,42.60
2018-08-04T10:11:12.484Z,42.80
2018-08-04T10:13:43.195Z,43.10
2018-08-04T10:16:13.246Z,43.10
2018-08-04T10:18:42.754Z,43.00
2018-08-04T10:21:13.404Z,42.60
2018-08-04T10:23:44.091Z,42.40
2018-08-04T10:26:14.117Z,42.10
2018-08-04T10:28:43.689Z,41.90
2018-08-04T10:31:13.692Z,41.90
2018-08-04T10:33:43.492Z,42.00
2018-08-04T10:36:12.791Z,41.80
2018-08-04T10:38:42.148Z,41.70
2018-08-04T10:41:11.303Z,42.20
2018-08-04T10:43:40.933Z,41.50
2018-08-04T10:46:10.331Z,41.80
2018-08-04T10:48:41.306Z,41.80
2018-08-04T10:51:10.643Z,41.80
2018-08-04T10:56:10.211Z,41.80
2018-08-04T10:58:39.411Z,41.60
2018-08-04T11:01:09.204Z,41.50
2018-08-04T11:06:17.579Z,41.30
2018-08-04T11:08:48.683Z,41.40
2018-08-04T11:11:17.869Z,41.40
2018-08-04T11:13:47.668Z,41.40
2018-08-04T11:16:17.786Z,41.20
2018-08-04T11:18:48.020Z,40.60
2018-08-04T11:21:17.504Z,40.50
2018-08-04T11:23:47.431Z,40.30
2018-08-04T11:31:17.288Z,40.10
2018-08-04T11:33:47.696Z,39.90
2018-08-04T11:36:17.828Z,39.70
2018-08-04T11:38:49.077Z,39.80
2018-08-04T11:41:21.158Z,39.50
2018-08-04T11:43:53.731Z,39.30
2018-08-04T11:46:23.336Z,39.70
2018-08-04T11:48:53.490Z,39.50
2018-08-04T11:51:23.892Z,39.10
2018-08-04T11:54:02.371Z,38.90
2018-08-04T11:56:34.220Z,38.70
2018-08-04T11:59:04.228Z,38.40
2018-08-04T12:01:35.818Z,38.10
2018-08-04T12:04:05.974Z,38.10
2018-08-04T12:06:35.789Z,38.70
2018-08-04T12:09:07.085Z,37.90
2018-08-04T12:11:38.679Z,37.60
2018-08-04T12:14:08.256Z,37.80
2018-08-04T12:16:38.283Z,37.70
2018-08-04T12:19:08.844Z,37.50
2018-08-04T12:21:39.378Z,37.30
2018-08-04T12:24:09.497Z,36.90
2018-08-04T12:26:38.577Z,37.00
2018-08-04T12:29:09.313Z,36.90
2018-08-04T12:31:38.637Z,37.00
2018-08-04T12:34:13.039Z,36.90
2018-08-04T12:36:42.924Z,36.50
2018-08-04T12:39:13.543Z,36.60
2018-08-04T12:41:45.365Z,36.50
2018-08-04T12:44:21.950Z,36.60
2018-08-04T12:46:52.673Z,36.30
2018-08-04T12:49:22.438Z,36.20
2018-08-04T12:51:52.568Z,35.90
2018-08-04T12:54:22.866Z,35.90
2018-08-04T12:56:52.186Z,35.90
2018-08-04T12:59:21.481Z,35.90
2018-08-04T13:01:52.358Z,35.20
2018-08-04T13:04:27.097Z,34.40
2018-08-04T13:06:57.405Z,34.40
2018-08-04T13:09:27.484Z,34.20
2018-08-04T13:11:57.492Z,34.00
2018-08-04T13:14:27.847Z,33.60
2018-08-04T13:17:00.209Z,33.20
2018-08-04T13:19:31.320Z,33.20
2018-08-04T13:24:30.633Z,33.20
2018-08-04T13:27:01.195Z,33.40
2018-08-04T13:29:30.466Z,33.10
2018-08-04T13:32:00.617Z,32.80
2018-08-04T13:34:30.680Z,33.00
2018-08-04T13:37:01.187Z,33.30
2018-08-04T13:39:31.182Z,33.70
2018-08-04T13:42:00.846Z,34.20
2018-08-04T13:44:32.401Z,34.50
2018-08-04T13:47:03.643Z,34.40
2018-08-04T13:49:38.093Z,33.80
2018-08-04T13:52:11.500Z,32.50
2018-08-04T13:54:42.683Z,31.20
2018-08-04T13:57:13.140Z,30.00
2018-08-04T13:59:42.864Z,28.70
2018-08-04T14:02:11.602Z,27.90
2018-08-04T14:04:41.988Z,27.10
2018-08-04T14:07:11.972Z,26.50
2018-08-04T14:09:41.209Z,26.20
2018-08-04T14:12:10.976Z,25.70
2018-08-04T14:14:43.864Z,25.50
2018-08-04T14:17:15.139Z,25.00
2018-08-04T14:19:44.217Z,24.90
2018-08-04T14:22:13.773Z,25.20
2018-08-04T14:24:44.046Z,25.70
2018-08-04T14:27:15.821Z,25.20
2018-08-04T14:29:46.520Z,25.60
2018-08-04T14:32:16.064Z,26.50
2018-08-04T14:34:46.417Z,27.20
2018-08-04T14:37:16.495Z,27.00
2018-08-04T14:39:48.278Z,25.90
2018-08-04T14:42:17.354Z,25.50
2018-08-04T14:44:46.653Z,25.20
2018-08-04T14:47:16.686Z,25.30
2018-08-04T14:49:46.719Z,24.90
2018-08-04T14:52:17.636Z,25.10
2018-08-04T14:54:52.239Z,25.80
2018-08-04T14:57:22.537Z,26.50
2018-08-04T14:59:53.356Z,27.30
2018-08-04T15:02:24.026Z,27.30
2018-08-04T15:04:53.644Z,26.20
2018-08-04T15:07:25.275Z,26.60
2018-08-04T15:09:55.114Z,27.50
2018-08-04T15:14:55.194Z,28.20
2018-08-04T15:19:58.154Z,29.10
2018-08-04T15:22:28.603Z,29.70
2018-08-04T15:24:58.293Z,30.30
2018-08-04T15:27:28.055Z,31.00
2018-08-04T15:32:27.579Z,32.00
2018-08-04T15:34:59.050Z,32.60
2018-08-04T15:37:28.817Z,33.10
2018-08-04T15:39:58.743Z,33.40
2018-08-04T15:42:28.656Z,33.70
2018-08-04T15:44:59.142Z,34.00
2018-08-04T15:47:28.331Z,34.60
2018-08-04T15:49:58.897Z,35.00
2018-08-04T15:52:29.972Z,35.20
2018-08-04T15:55:01.072Z,35.50
2018-08-04T15:57:30.649Z,35.80
2018-08-04T16:00:02.556Z,36.00
2018-08-04T16:02:32.584Z,36.20
2018-08-04T16:05:02.484Z,36.30
